createdAt,value
2022-10-04T00:00:09.385Z,17.68
2022-10-04T00:01:09.387Z,17.70
2022-10-04T00:02:09.453Z,17.54
2022-10-04T00:03:09.434Z,17.59
2022-10-04T00:04:09.393Z,17.62
2022-10-04T00:05:09.384Z,17.58
2022-10-04T00:06:09.388Z,17.62
2022-10-04T00:07:09.377Z,17.58
2022-10-04T00:08:09.386Z,17.54
2022-10-04T00:09:09.378Z,17.41
2022-10-04T00:10:09.396Z,17.54
2022-10-04T00:11:09.375Z,17.55
2022-10-04T00:12:09.378Z,17.56
2022-10-04T00:13:09.382Z,17.44
2022-10-04T00:14:09.382Z,17.58
2022-10-04T00:15:09.375Z,17.54
2022-10-04T00:16:09.429Z,17.51
2022-10-04T00:17:09.377Z,17.56
2022-10-04T00:18:09.382Z,17.58
2022-10-04T00:19:09.376Z,17.54
2022-10-04T00:20:09.378Z,17.43
2022-10-04T00:21:09.377Z,17.52
2022-10-04T00:22:09.378Z,17.38
2022-10-04T00:23:09.376Z,17.44
2022-10-04T00:24:09.379Z,17.37
2022-10-04T00:25:09.375Z,17.52
2022-10-04T00:26:09.390Z,17.44
2022-10-04T00:27:09.374Z,17.38
2022-10-04T00:28:09.403Z,17.55
2022-10-04T00:29:09.372Z,17.46
2022-10-04T00:30:09.376Z,17.51
2022-10-04T00:31:09.421Z,17.51
2022-10-04T00:32:09.375Z,17.55
2022-10-04T00:33:09.375Z,17.40
2022-10-04T00:34:09.382Z,17.51
2022-10-04T00:35:09.371Z,17.55
2022-10-04T00:36:09.374Z,17.54
2022-10-04T00:37:09.365Z,17.37
2022-10-04T00:38:09.372Z,17.34
2022-10-04T00:39:09.378Z,17.44
2022-10-04T00:40:09.367Z,17.51
2022-10-04T00:41:09.367Z,17.43
2022-10-04T00:42:09.388Z,17.33
2022-10-04T00:43:09.369Z,17.34
2022-10-04T00:44:09.373Z,17.33
2022-10-04T00:45:09.367Z,17.41
2022-10-04T00:46:09.397Z,17.52
2022-10-04T00:47:09.364Z,17.48
2022-10-04T00:48:09.368Z,17.46
2022-10-04T00:49:09.365Z,17.54
2022-10-04T00:50:09.367Z,17.48
2022-10-04T00:51:09.364Z,17.51
2022-10-04T00:52:09.418Z,17.41
2022-10-04T00:53:09.366Z,17.34
2022-10-04T00:54:09.368Z,17.36
2022-10-04T00:55:09.362Z,17.43
2022-10-04T00:56:09.370Z,17.43
2022-10-04T00:57:09.360Z,17.40
2022-10-04T00:58:09.483Z,17.30
2022-10-04T00:59:09.362Z,17.40
2022-10-04T01:00:09.364Z,17.41
2022-10-04T01:01:09.453Z,17.15
2022-10-04T01:02:09.443Z,17.28
2022-10-04T01:03:09.365Z,17.19
2022-10-04T01:04:09.360Z,17.19
2022-10-04T01:05:09.360Z,17.34
2022-10-04T01:06:09.366Z,17.16
2022-10-04T01:07:09.357Z,17.30
2022-10-04T01:08:09.361Z,17.33
2022-10-04T01:09:09.360Z,17.33
2022-10-04T01:10:09.360Z,17.22
2022-10-04T01:11:09.361Z,17.22
2022-10-04T01:12:09.364Z,17.28
2022-10-04T01:13:09.360Z,17.26
2022-10-04T01:14:09.377Z,17.21
2022-10-04T01:15:09.359Z,17.19
2022-10-04T01:16:09.532Z,17.18
2022-10-04T01:17:09.356Z,17.19
2022-10-04T01:18:09.717Z,17.22
2022-10-04T01:19:09.359Z,17.30
2022-10-04T01:20:09.352Z,17.19
2022-10-04T01:21:09.362Z,17.19
2022-10-04T01:22:09.370Z,17.36
2022-10-04T01:23:09.355Z,17.23
2022-10-04T01:24:09.354Z,17.15
2022-10-04T01:25:09.352Z,17.21
2022-10-04T01:26:09.354Z,17.19
2022-10-04T01:27:09.354Z,17.12
2022-10-04T01:28:09.397Z,17.19
2022-10-04T01:29:09.350Z,17.18
2022-10-04T01:30:09.383Z,17.19
2022-10-04T01:31:09.390Z,17.18
2022-10-04T01:32:09.354Z,17.15
2022-10-04T01:33:09.356Z,17.21
2022-10-04T01:34:09.351Z,17.16
2022-10-04T01:35:09.353Z,17.23
2022-10-04T01:36:09.351Z,17.21
2022-10-04T01:37:09.344Z,17.14
2022-10-04T01:38:09.349Z,17.19
2022-10-04T01:39:09.349Z,17.06
2022-10-04T01:40:09.344Z,17.15
2022-10-04T01:41:09.351Z,17.11
2022-10-04T01:42:09.350Z,17.14
2022-10-04T01:43:09.349Z,17.14
2022-10-04T01:44:09.346Z,17.07
2022-10-04T01:45:09.347Z,17.11
2022-10-04T01:46:09.438Z,17.14
2022-10-04T01:47:09.349Z,17.08
2022-10-04T01:48:09.347Z,17.21
2022-10-04T01:49:09.344Z,17.15
2022-10-04T01:50:13.571Z,17.08
2022-10-04T01:51:09.343Z,17.06
2022-10-04T01:52:09.397Z,17.14
2022-10-04T01:53:09.345Z,17.07
2022-10-04T01:54:09.346Z,17.01
2022-10-04T01:55:09.342Z,17.06
2022-10-04T01:56:09.342Z,17.08
2022-10-04T01:57:09.342Z,17.06
2022-10-04T01:58:09.346Z,16.98
2022-10-04T01:59:09.339Z,16.93
2022-10-04T02:00:09.341Z,16.93
2022-10-04T02:01:09.376Z,16.96
2022-10-04T02:02:09.363Z,17.03
2022-10-04T02:03:09.340Z,16.89
2022-10-04T02:04:09.411Z,17.03
2022-10-04T02:05:09.333Z,16.97
2022-10-04T02:06:09.335Z,17.00
2022-10-04T02:07:09.349Z,17.00
2022-10-04T02:08:09.345Z,16.86
2022-10-04T02:09:09.335Z,16.86
2022-10-04T02:10:09.333Z,16.78
2022-10-04T02:11:09.334Z,16.76
2022-10-04T02:12:09.342Z,16.81
2022-10-04T02:13:09.331Z,16.76
2022-10-04T02:14:09.338Z,16.73
2022-10-04T02:15:09.343Z,16.68
2022-10-04T02:16:09.399Z,16.73
2022-10-04T02:17:09.331Z,16.73
2022-10-04T02:18:09.354Z,16.70
2022-10-04T02:19:09.343Z,16.67
2022-10-04T02:20:09.334Z,16.68
2022-10-04T02:21:09.329Z,16.70
2022-10-04T02:22:09.331Z,16.68
2022-10-04T02:23:09.333Z,16.60
2022-10-04T02:24:09.332Z,16.63
2022-10-04T02:25:09.329Z,16.61
2022-10-04T02:26:09.332Z,16.67
2022-10-04T02:27:09.330Z,16.60
2022-10-04T02:28:09.377Z,16.68
2022-10-04T02:29:09.330Z,16.57
2022-10-04T02:30:09.334Z,16.61
2022-10-04T02:31:09.438Z,16.64
2022-10-04T02:32:09.329Z,16.73
2022-10-04T02:33:09.327Z,16.75
2022-10-04T02:34:09.350Z,16.68
2022-10-04T02:35:09.332Z,16.73
2022-10-04T02:36:09.331Z,16.71
2022-10-04T02:37:09.330Z,16.71
2022-10-04T02:38:09.324Z,16.68
2022-10-04T02:39:09.321Z,16.61
2022-10-04T02:40:09.331Z,16.63
2022-10-04T02:41:09.320Z,16.60
2022-10-04T02:42:09.325Z,16.56
2022-10-04T02:43:09.320Z,16.63
2022-10-04T02:44:09.323Z,16.48
2022-10-04T02:45:09.323Z,16.46
2022-10-04T02:46:09.425Z,16.48
2022-10-04T02:47:09.325Z,16.43
2022-10-04T02:48:09.322Z,16.48
2022-10-04T02:49:09.320Z,16.43
2022-10-04T02:50:09.342Z,16.42
2022-10-04T02:51:09.319Z,16.46
2022-10-04T02:52:09.368Z,16.39
2022-10-04T02:53:09.317Z,16.27
2022-10-04T02:54:09.319Z,16.23
2022-10-04T02:55:09.321Z,16.14
2022-10-04T02:56:09.324Z,16.25
2022-10-04T02:57:09.320Z,16.25
2022-10-04T02:58:09.315Z,16.28
2022-10-04T02:59:09.318Z,16.21
2022-10-04T03:00:09.320Z,16.31
2022-10-04T03:01:09.367Z,16.12
2022-10-04T03:02:09.420Z,16.24
2022-10-04T03:03:09.319Z,16.15
2022-10-04T03:04:09.316Z,16.09
2022-10-04T03:05:09.320Z,16.09
2022-10-04T03:06:09.335Z,16.09
2022-10-04T03:07:09.311Z,16.11
2022-10-04T03:08:09.319Z,16.08
2022-10-04T03:09:09.315Z,16.15
2022-10-04T03:10:09.318Z,16.17
2022-10-04T03:11:09.311Z,16.11
2022-10-04T03:12:09.313Z,16.09
2022-10-04T03:13:09.314Z,16.21
2022-10-04T03:14:09.306Z,16.25
2022-10-04T03:15:09.308Z,16.25
2022-10-04T03:16:09.361Z,16.14
2022-10-04T03:17:09.311Z,16.23
2022-10-04T03:18:09.301Z,16.28
2022-10-04T03:19:09.315Z,16.24
2022-10-04T03:20:09.314Z,16.14
2022-10-04T03:21:09.308Z,16.09
2022-10-04T03:22:09.332Z,16.09
2022-10-04T03:23:09.307Z,16.04
2022-10-04T03:24:09.307Z,16.02
2022-10-04T03:25:09.306Z,16.11
2022-10-04T03:26:09.309Z,16.04
2022-10-04T03:27:09.308Z,16.07
2022-10-04T03:28:09.369Z,15.90
2022-10-04T03:29:09.305Z,16.01
2022-10-04T03:30:09.308Z,15.93
2022-10-04T03:31:09.387Z,15.90
2022-10-04T03:32:09.299Z,15.87
2022-10-04T03:33:09.299Z,16.01
2022-10-04T03:34:09.305Z,16.04
2022-10-04T03:35:09.297Z,15.93
2022-10-04T03:36:09.299Z,15.86
2022-10-04T03:37:09.299Z,15.89
2022-10-04T03:38:09.320Z,16.00
2022-10-04T03:39:09.309Z,15.89
2022-10-04T03:40:09.296Z,15.90
2022-10-04T03:41:09.297Z,15.96
2022-10-04T03:42:09.301Z,15.89
2022-10-04T03:43:09.297Z,15.94
2022-10-04T03:44:09.298Z,16.00
2022-10-04T03:45:09.299Z,16.05
2022-10-04T03:46:09.408Z,15.93
2022-10-04T03:47:09.294Z,16.04
2022-10-04T03:48:09.296Z,16.07
2022-10-04T03:49:09.293Z,16.08
2022-10-04T03:50:09.292Z,16.08
2022-10-04T03:51:09.289Z,16.11
2022-10-04T03:52:09.301Z,16.20
2022-10-04T03:53:09.292Z,16.11
2022-10-04T03:54:09.309Z,16.28
2022-10-04T03:55:09.291Z,16.38
2022-10-04T03:56:09.286Z,16.31
2022-10-04T03:57:09.286Z,16.28
2022-10-04T03:58:09.289Z,16.25
2022-10-04T03:59:09.287Z,16.15
2022-10-04T04:00:09.286Z,16.21
2022-10-04T04:01:09.381Z,16.41
2022-10-04T04:02:09.362Z,16.33
2022-10-04T04:03:09.281Z,16.33
2022-10-04T04:04:09.284Z,16.41
2022-10-04T04:05:09.291Z,16.50
2022-10-04T04:06:09.284Z,16.43
2022-10-04T04:07:09.289Z,16.46
2022-10-04T04:08:09.283Z,16.45
2022-10-04T04:09:09.282Z,16.34
2022-10-04T04:10:13.205Z,16.34
2022-10-04T04:11:09.278Z,16.38
2022-10-04T04:12:09.318Z,16.48
2022-10-04T04:13:09.300Z,16.45
2022-10-04T04:14:09.279Z,16.46
2022-10-04T04:15:09.278Z,16.38
2022-10-04T04:16:09.345Z,16.38
2022-10-04T04:17:09.282Z,16.42
2022-10-04T04:18:09.280Z,16.38
2022-10-04T04:19:09.281Z,16.35
2022-10-04T04:20:09.270Z,16.31
2022-10-04T04:21:09.282Z,16.34
2022-10-04T04:22:09.277Z,16.28
2022-10-04T04:23:09.274Z,16.34
2022-10-04T04:24:09.276Z,16.28
2022-10-04T04:25:09.274Z,16.24
2022-10-04T04:26:09.294Z,16.24
2022-10-04T04:27:09.283Z,16.27
2022-10-04T04:28:09.379Z,16.39
2022-10-04T04:29:09.275Z,16.35
2022-10-04T04:30:09.282Z,16.23
2022-10-04T04:31:09.301Z,16.20
2022-10-04T04:32:09.341Z,16.25
2022-10-04T04:33:09.302Z,16.01
2022-10-04T04:34:09.282Z,16.04
2022-10-04T04:35:09.280Z,15.89
2022-10-04T04:36:09.271Z,15.93
2022-10-04T04:37:09.274Z,15.92
2022-10-04T04:38:09.277Z,15.89
2022-10-04T04:39:09.268Z,15.90
2022-10-04T04:40:09.264Z,15.94
2022-10-04T04:41:09.289Z,15.92
2022-10-04T04:42:09.291Z,15.92
2022-10-04T04:43:09.284Z,15.94
2022-10-04T04:44:09.269Z,15.97
2022-10-04T04:45:09.278Z,15.94
2022-10-04T04:46:26.653Z,15.97
2022-10-04T04:47:09.263Z,16.00
2022-10-04T04:48:09.286Z,16.00
2022-10-04T04:49:09.283Z,15.97
2022-10-04T04:50:09.257Z,16.00
2022-10-04T04:51:09.312Z,15.89
2022-10-04T04:52:09.278Z,15.93
2022-10-04T04:53:09.290Z,15.92
2022-10-04T04:54:09.258Z,15.90
2022-10-04T04:55:09.257Z,15.68
2022-10-04T04:56:10.982Z,15.65
2022-10-04T04:57:09.263Z,15.62
2022-10-04T04:58:09.282Z,15.68
2022-10-04T04:59:09.267Z,15.74
2022-10-04T05:00:09.257Z,15.68
2022-10-04T05:01:09.339Z,15.64
2022-10-04T05:02:09.311Z,15.44
2022-10-04T05:03:09.253Z,15.51
2022-10-04T05:04:09.258Z,15.62
2022-10-04T05:05:09.257Z,15.64
2022-10-04T05:06:09.252Z,15.65
2022-10-04T05:07:09.248Z,15.50
2022-10-04T05:08:09.252Z,15.53
2022-10-04T05:09:09.248Z,15.54
2022-10-04T05:10:09.250Z,15.50
2022-10-04T05:11:09.252Z,15.53
2022-10-04T05:12:09.247Z,15.49
2022-10-04T05:13:09.254Z,15.49
2022-10-04T05:14:09.265Z,15.57
2022-10-04T05:15:09.334Z,15.51
2022-10-04T05:16:09.295Z,15.46
2022-10-04T05:17:09.247Z,15.46
2022-10-04T05:18:09.242Z,15.31
2022-10-04T05:25:31.754Z,15.41
2022-10-04T05:26:31.755Z,15.46
2022-10-04T05:27:31.764Z,15.50
2022-10-04T05:28:31.818Z,15.54
2022-10-04T05:29:31.771Z,15.47
2022-10-04T05:30:31.750Z,15.38
2022-10-04T05:31:31.774Z,15.46
2022-10-04T05:32:31.749Z,15.50
2022-10-04T05:33:33.896Z,15.38
2022-10-04T05:34:31.750Z,15.39
2022-10-04T05:35:31.747Z,15.47
2022-10-04T05:36:31.755Z,15.50
2022-10-04T05:37:31.750Z,15.46
2022-10-04T05:38:31.747Z,15.41
2022-10-04T05:39:31.748Z,15.39
2022-10-04T05:40:31.745Z,15.41
2022-10-04T05:41:42.380Z,15.41
2022-10-04T05:42:31.743Z,15.39
2022-10-04T05:43:31.742Z,15.32
2022-10-04T05:44:31.740Z,15.38
2022-10-04T05:45:31.836Z,15.47
2022-10-04T05:46:31.743Z,15.53
2022-10-04T05:47:31.740Z,15.44
2022-10-04T05:48:31.742Z,15.46
2022-10-04T05:49:31.739Z,15.38
2022-10-04T05:50:31.737Z,15.50
2022-10-04T05:51:31.740Z,15.53
2022-10-04T05:52:31.741Z,15.64
2022-10-04T05:53:31.740Z,15.67
2022-10-04T05:54:31.734Z,15.62
2022-10-04T05:55:31.736Z,15.59
2022-10-04T05:56:31.732Z,15.65
2022-10-04T05:57:31.739Z,15.54
2022-10-04T05:58:31.733Z,15.56
2022-10-04T05:59:31.734Z,15.65
2022-10-04T06:00:31.736Z,15.71
2022-10-04T06:01:31.980Z,15.78
2022-10-04T06:02:31.807Z,15.89
2022-10-04T06:03:31.737Z,15.93
2022-10-04T06:04:31.734Z,15.84
2022-10-04T06:05:31.737Z,15.86
2022-10-04T06:06:31.727Z,15.75
2022-10-04T06:07:31.732Z,15.90
2022-10-04T06:08:31.738Z,15.87
2022-10-04T06:09:31.722Z,15.87
2022-10-04T06:10:31.729Z,15.90
2022-10-04T06:11:31.732Z,15.84
2022-10-04T06:12:31.732Z,15.93
2022-10-04T06:13:31.727Z,16.08
2022-10-04T06:14:31.721Z,16.15
2022-10-04T06:15:31.721Z,16.21
2022-10-04T06:16:31.799Z,16.20
2022-10-04T06:17:31.743Z,16.34
2022-10-04T06:18:31.722Z,16.45
2022-10-04T06:19:31.729Z,16.48
2022-10-04T06:20:31.721Z,16.64
2022-10-04T06:21:31.724Z,16.67
2022-10-04T06:22:31.722Z,16.83
2022-10-04T06:23:31.717Z,16.81
2022-10-04T06:24:31.717Z,16.91
2022-10-04T06:25:31.720Z,17.00
2022-10-04T06:26:31.721Z,16.97
2022-10-04T06:27:31.721Z,17.15
2022-10-04T06:28:31.769Z,17.18
2022-10-04T06:29:31.713Z,17.37
2022-10-04T06:30:31.770Z,17.46
2022-10-04T06:31:31.719Z,17.51
2022-10-04T06:32:31.719Z,17.68
2022-10-04T06:33:31.735Z,17.77
2022-10-04T06:34:31.711Z,17.87
2022-10-04T06:35:31.712Z,17.95
2022-10-04T06:36:31.712Z,17.99
2022-10-04T06:37:31.714Z,18.12
2022-10-04T06:38:31.713Z,18.07
2022-10-04T06:39:31.714Z,18.26
2022-10-04T06:40:31.705Z,18.30
2022-10-04T06:41:31.709Z,18.44
2022-10-04T06:42:31.709Z,18.51
2022-10-04T06:43:31.709Z,18.52
2022-10-04T06:44:31.708Z,18.57
2022-10-04T06:45:31.709Z,18.66
2022-10-04T06:46:31.831Z,18.65
2022-10-04T06:47:31.706Z,18.81
2022-10-04T06:48:31.704Z,18.91
2022-10-04T06:49:31.729Z,18.94
2022-10-04T06:50:31.710Z,19.13
2022-10-04T06:51:31.704Z,19.16
2022-10-04T06:52:31.704Z,19.13
2022-10-04T06:53:31.707Z,19.40
2022-10-04T06:54:31.708Z,19.54
2022-10-04T06:55:31.703Z,19.50
2022-10-04T06:56:31.706Z,19.41
2022-10-04T06:57:31.711Z,19.54
2022-10-04T06:58:31.704Z,19.59
2022-10-04T06:59:31.703Z,19.51
2022-10-04T07:00:31.701Z,19.62
2022-10-04T07:01:31.802Z,19.58
2022-10-04T07:02:31.730Z,19.69
2022-10-04T07:03:31.704Z,19.68
2022-10-04T07:04:49.960Z,19.65
2022-10-04T07:05:31.726Z,19.68
2022-10-04T07:06:31.712Z,19.69
2022-10-04T07:07:31.698Z,19.76
2022-10-04T07:08:31.704Z,19.73
2022-10-04T07:09:31.705Z,19.88
2022-10-04T07:10:31.698Z,20.08
2022-10-04T07:11:31.703Z,20.28
2022-10-04T07:12:31.704Z,20.16
2022-10-04T07:13:31.700Z,19.99
2022-10-04T07:14:31.708Z,20.14
2022-10-04T07:15:31.739Z,20.33
2022-10-04T07:16:31.704Z,20.50
2022-10-04T07:17:31.703Z,20.70
2022-10-04T07:18:31.702Z,20.88
2022-10-04T07:19:31.702Z,20.82
2022-10-04T07:20:31.707Z,20.76
2022-10-04T07:21:31.729Z,20.55
2022-10-04T07:22:31.707Z,20.69
2022-10-04T07:23:31.710Z,20.42
2022-10-04T07:24:31.707Z,20.10
2022-10-04T07:25:31.704Z,19.83
2022-10-04T07:26:31.702Z,19.74
2022-10-04T07:27:31.717Z,19.86
2022-10-04T07:28:31.762Z,19.86
2022-10-04T07:29:31.712Z,19.87
2022-10-04T07:30:31.703Z,19.84
2022-10-04T07:31:31.702Z,19.78
2022-10-04T07:32:31.704Z,19.81
2022-10-04T07:33:31.701Z,19.81
2022-10-04T07:34:31.706Z,19.69
2022-10-04T07:35:31.705Z,19.43
2022-10-04T07:36:31.700Z,19.43
2022-10-04T07:37:31.725Z,19.37
2022-10-04T07:38:31.700Z,19.51
2022-10-04T07:39:31.711Z,19.44
2022-10-04T07:40:31.706Z,19.58
2022-10-04T07:41:31.711Z,19.46
2022-10-04T07:42:31.704Z,19.40
2022-10-04T07:43:31.704Z,19.31
2022-10-04T07:44:31.705Z,19.40
2022-10-04T07:45:31.709Z,19.41
2022-10-04T07:46:31.735Z,19.51
2022-10-04T07:47:31.713Z,19.56
2022-10-04T07:48:31.704Z,19.59
2022-10-04T07:49:31.709Z,19.61
2022-10-04T07:50:31.706Z,19.55
2022-10-04T07:51:31.709Z,19.58
2022-10-04T07:52:31.705Z,19.47
2022-10-04T07:53:31.719Z,19.54
2022-10-04T07:54:31.705Z,19.48
2022-10-04T07:55:31.705Z,19.39
2022-10-04T07:56:31.702Z,19.37
2022-10-04T07:57:31.704Z,19.41
2022-10-04T07:58:31.705Z,19.43
2022-10-04T07:59:31.706Z,19.43
2022-10-04T08:00:31.718Z,19.25
2022-10-04T08:01:31.759Z,19.25
2022-10-04T08:02:31.925Z,19.11
2022-10-04T08:03:31.743Z,19.23
2022-10-04T08:04:31.708Z,19.16
2022-10-04T08:05:31.709Z,19.23
2022-10-04T08:06:31.704Z,19.23
2022-10-04T08:07:31.706Z,19.21
2022-10-04T08:08:31.711Z,18.99
2022-10-04T08:09:31.743Z,18.88
2022-10-04T08:10:32.518Z,18.84
2022-10-04T08:11:31.710Z,18.84
2022-10-04T08:12:31.709Z,18.85
2022-10-04T08:13:31.707Z,18.91
2022-10-04T08:14:31.706Z,18.85
2022-10-04T08:15:31.791Z,18.82
2022-10-04T08:16:31.708Z,18.98
2022-10-04T08:17:31.712Z,19.00
2022-10-04T08:18:31.703Z,19.00
2022-10-04T08:19:31.706Z,18.99
2022-10-04T08:20:31.711Z,19.06
2022-10-04T08:21:31.715Z,19.08
2022-10-04T08:22:31.709Z,19.16
2022-10-04T08:23:31.712Z,19.16
2022-10-04T08:24:31.710Z,19.29
2022-10-04T08:25:31.758Z,19.33
2022-10-04T08:26:31.711Z,19.51
2022-10-04T08:27:31.705Z,19.43
2022-10-04T08:28:31.771Z,19.46
2022-10-04T08:29:31.713Z,19.55
2022-10-04T08:30:31.704Z,19.58
2022-10-04T08:31:31.878Z,19.61
2022-10-04T08:32:31.710Z,19.62
2022-10-04T08:33:31.706Z,19.69
2022-10-04T08:34:31.709Z,19.68
2022-10-04T08:35:31.713Z,19.69
2022-10-04T08:36:31.710Z,19.65
2022-10-04T08:37:31.709Z,19.73
2022-10-04T08:38:31.709Z,19.77
2022-10-04T08:39:31.709Z,19.81
2022-10-04T08:40:31.708Z,19.76
2022-10-04T08:41:31.740Z,19.76
2022-10-04T08:42:31.714Z,19.74
2022-10-04T08:43:31.714Z,19.74
2022-10-04T08:44:31.711Z,19.73
2022-10-04T08:45:31.713Z,19.84
2022-10-04T08:46:31.769Z,19.88
2022-10-04T08:47:31.713Z,19.96
2022-10-04T08:48:31.714Z,20.02
2022-10-04T08:49:31.711Z,20.03
2022-10-04T08:50:31.710Z,20.17
2022-10-04T08:51:31.714Z,20.10
2022-10-04T08:52:31.710Z,20.23
2022-10-04T08:53:31.715Z,20.33
2022-10-04T08:54:31.711Z,20.62
2022-10-04T08:55:31.716Z,20.94
2022-10-04T08:56:31.711Z,21.37
2022-10-04T08:57:31.793Z,21.84
2022-10-04T08:58:31.715Z,22.18
2022-10-04T08:59:31.713Z,22.22
2022-10-04T09:00:31.715Z,22.42
2022-10-04T09:01:31.785Z,22.35
2022-10-04T09:02:31.746Z,22.24
2022-10-04T09:03:31.726Z,22.17
2022-10-04T09:04:31.720Z,22.03
2022-10-04T09:05:31.721Z,22.02
2022-10-04T09:06:31.723Z,21.88
2022-10-04T09:07:31.724Z,22.05
2022-10-04T09:08:31.724Z,22.02
2022-10-04T09:09:31.729Z,22.18
2022-10-04T09:10:31.727Z,22.18
2022-10-04T09:11:31.725Z,22.20
2022-10-04T09:12:31.721Z,22.36
2022-10-04T09:13:31.919Z,22.40
2022-10-04T09:14:31.745Z,22.65
2022-10-04T09:15:31.864Z,23.27
2022-10-04T09:16:31.735Z,23.48
2022-10-04T09:17:31.730Z,23.79
2022-10-04T09:18:31.742Z,24.21
2022-10-04T09:19:31.734Z,24.96
2022-10-04T09:20:39.779Z,25.64
2022-10-04T09:21:31.739Z,25.69
2022-10-04T09:22:31.741Z,25.57
2022-10-04T09:23:31.745Z,25.35
2022-10-04T09:24:31.739Z,25.23
2022-10-04T09:25:31.750Z,25.35
2022-10-04T09:26:31.750Z,26.12
2022-10-04T09:27:54.336Z,26.60
2022-10-04T09:28:31.817Z,26.80
2022-10-04T09:29:31.792Z,26.40
2022-10-04T09:30:31.763Z,25.91
2022-10-04T09:31:31.861Z,26.10
2022-10-04T09:32:31.762Z,25.98
2022-10-04T09:33:31.769Z,25.40
2022-10-04T09:34:37.058Z,25.54
2022-10-04T09:35:31.776Z,26.18
2022-10-04T09:36:31.779Z,26.87
2022-10-04T09:37:31.783Z,26.75
2022-10-04T09:38:31.786Z,27.43
2022-10-04T09:39:31.790Z,27.77
2022-10-04T09:40:31.794Z,28.12
2022-10-04T09:41:31.799Z,28.02
2022-10-04T09:42:31.803Z,28.19
2022-10-04T09:43:31.809Z,28.40
2022-10-04T09:44:31.819Z,27.99
2022-10-04T09:45:31.848Z,27.46
2022-10-04T09:46:31.910Z,26.92
2022-10-04T09:47:31.827Z,26.67
2022-10-04T09:48:31.842Z,26.63
2022-10-04T09:49:31.841Z,26.23
2022-10-04T09:50:31.846Z,25.98
2022-10-04T09:51:31.849Z,26.17
2022-10-04T09:52:31.858Z,25.97
2022-10-04T09:53:31.861Z,26.25
2022-10-04T09:54:31.865Z,26.10
2022-10-04T09:55:31.872Z,25.88
2022-10-04T09:56:31.880Z,25.75
2022-10-04T09:57:31.886Z,25.57
2022-10-04T09:58:31.892Z,25.35
2022-10-04T09:59:31.896Z,25.25
2022-10-04T10:00:31.956Z,25.18
2022-10-04T10:01:31.992Z,25.20
2022-10-04T10:02:31.953Z,25.14
2022-10-04T10:03:31.916Z,25.27
2022-10-04T10:04:31.930Z,25.61
2022-10-04T10:05:31.929Z,25.65
2022-10-04T10:06:31.943Z,25.65
2022-10-04T10:07:31.944Z,25.62
2022-10-04T10:08:31.946Z,25.57
2022-10-04T10:09:31.949Z,25.32
2022-10-04T10:10:31.956Z,25.20
2022-10-04T10:11:31.960Z,25.33
2022-10-04T10:12:31.962Z,25.45
2022-10-04T10:13:32.256Z,25.42
2022-10-04T10:14:31.976Z,25.25
2022-10-04T10:15:31.981Z,25.15
2022-10-04T10:16:31.987Z,25.03
2022-10-04T10:17:32.079Z,25.17
2022-10-04T10:18:31.996Z,25.47
2022-10-04T10:19:32.004Z,25.98
2022-10-04T10:20:32.006Z,26.32
2022-10-04T10:21:32.013Z,26.57
2022-10-04T10:22:32.022Z,27.75
2022-10-04T10:23:32.021Z,28.11
2022-10-04T10:24:32.032Z,28.11
2022-10-04T10:25:32.033Z,28.29
2022-10-04T10:26:32.049Z,28.02
2022-10-04T10:27:32.043Z,27.47
2022-10-04T10:28:32.090Z,27.25
2022-10-04T10:29:32.058Z,27.24
2022-10-04T10:30:32.056Z,27.03
2022-10-04T10:31:32.179Z,26.87
2022-10-04T10:32:32.074Z,26.58
2022-10-04T10:33:32.106Z,26.62
2022-10-04T10:34:32.086Z,26.62
2022-10-04T10:35:32.086Z,26.57
2022-10-04T10:36:32.096Z,26.60
2022-10-04T10:37:32.098Z,26.66
2022-10-04T10:38:32.121Z,26.69
2022-10-04T10:39:32.110Z,26.66
2022-10-04T10:40:32.119Z,26.70
2022-10-04T10:41:32.118Z,26.48
2022-10-04T10:42:32.122Z,26.50
2022-10-04T10:43:32.127Z,26.28
2022-10-04T10:44:32.137Z,26.23
2022-10-04T10:45:32.141Z,26.12
2022-10-04T10:46:32.225Z,26.01
2022-10-04T10:47:32.158Z,25.72
2022-10-04T10:48:32.161Z,25.54
2022-10-04T10:49:32.191Z,25.38
2022-10-04T10:50:32.170Z,25.36
2022-10-04T10:51:32.175Z,25.20
2022-10-04T10:52:32.180Z,24.83
2022-10-04T10:53:32.187Z,24.62
2022-10-04T10:54:32.193Z,24.65
2022-10-04T10:55:32.197Z,24.57
2022-10-04T10:56:32.200Z,24.40
2022-10-04T10:57:32.203Z,24.37
2022-10-04T10:58:32.222Z,24.88
2022-10-04T10:59:32.214Z,24.76
2022-10-04T11:00:32.273Z,24.83
2022-10-04T11:01:32.350Z,24.84
2022-10-04T11:02:48.057Z,25.40
2022-10-04T11:03:32.714Z,25.75
2022-10-04T11:04:32.237Z,25.99
2022-10-04T11:05:32.258Z,25.99
2022-10-04T11:06:32.244Z,25.82
2022-10-04T11:07:32.247Z,25.64
2022-10-04T11:08:32.261Z,25.46
2022-10-04T11:09:32.258Z,25.54
2022-10-04T11:10:32.264Z,25.67
2022-10-04T11:11:32.266Z,26.10
2022-10-04T11:12:32.271Z,26.10
2022-10-04T11:13:32.276Z,25.99
2022-10-04T11:14:32.282Z,25.97
2022-10-04T11:15:32.294Z,26.01
2022-10-04T11:16:32.334Z,25.90
2022-10-04T11:17:32.294Z,25.88
2022-10-04T11:18:32.298Z,25.76
2022-10-04T11:19:32.299Z,25.65
2022-10-04T11:20:32.304Z,26.10
2022-10-04T11:21:32.331Z,25.92
2022-10-04T11:22:37.429Z,25.95
2022-10-04T11:23:32.319Z,25.73
2022-10-04T11:24:32.323Z,25.85
2022-10-04T11:25:32.324Z,25.73
2022-10-04T11:26:32.326Z,25.32
2022-10-04T11:27:32.334Z,25.10
2022-10-04T11:28:32.488Z,24.81
2022-10-04T11:29:32.340Z,24.68
2022-10-04T11:30:32.346Z,24.78
2022-10-04T11:31:32.407Z,24.67
2022-10-04T11:32:32.352Z,24.50
2022-10-04T11:33:32.359Z,24.57
2022-10-04T11:34:32.358Z,24.43
2022-10-04T11:35:32.367Z,24.99
2022-10-04T11:36:32.364Z,25.09
2022-10-04T11:37:32.395Z,25.13
2022-10-04T11:38:32.377Z,25.43
2022-10-04T11:39:32.378Z,25.95
2022-10-04T11:40:32.382Z,26.12
2022-10-04T11:41:32.380Z,25.99
2022-10-04T11:42:32.388Z,25.95
2022-10-04T11:43:32.403Z,25.98
2022-10-04T11:44:32.395Z,25.91
2022-10-04T11:45:32.394Z,25.95
2022-10-04T11:46:32.485Z,27.06
2022-10-04T11:47:32.405Z,27.27
2022-10-04T11:48:32.412Z,27.50
2022-10-04T11:49:32.409Z,27.54
2022-10-04T11:50:32.413Z,27.67
2022-10-04T11:51:32.414Z,27.36
2022-10-04T11:52:32.417Z,27.13
2022-10-04T11:53:32.453Z,26.76
2022-10-04T11:54:32.432Z,26.51
2022-10-04T11:55:32.425Z,26.21
2022-10-04T11:56:32.432Z,25.70
2022-10-04T11:57:32.435Z,25.28
2022-10-04T11:58:32.441Z,25.15
2022-10-04T11:59:32.444Z,24.90
2022-10-04T12:00:32.494Z,24.69
2022-10-04T12:01:32.453Z,24.71
2022-10-04T12:02:32.448Z,24.99
2022-10-04T12:03:32.526Z,25.45
2022-10-04T12:04:32.561Z,25.97
2022-10-04T12:05:32.461Z,26.28
2022-10-04T12:06:32.468Z,26.58
2022-10-04T12:07:32.463Z,26.66
2022-10-04T12:08:32.470Z,26.47
2022-10-04T12:09:32.494Z,26.09
2022-10-04T12:10:32.474Z,26.10
2022-10-04T12:11:32.483Z,25.95
2022-10-04T12:12:32.484Z,25.88
2022-10-04T12:13:32.485Z,25.57
2022-10-04T12:14:32.487Z,25.33
2022-10-04T12:15:32.491Z,25.25
2022-10-04T12:16:32.553Z,25.24
2022-10-04T12:17:32.497Z,25.25
2022-10-04T12:18:32.499Z,25.33
2022-10-04T12:19:32.501Z,25.36
2022-10-04T12:20:32.506Z,25.05
2022-10-04T12:21:32.507Z,24.78
2022-10-04T12:22:32.514Z,24.67
2022-10-04T12:23:32.512Z,24.62
2022-10-04T12:24:32.515Z,24.40
2022-10-04T12:25:32.539Z,24.37
2022-10-04T12:26:32.521Z,24.43
2022-10-04T12:27:32.522Z,24.40
2022-10-04T12:28:32.634Z,24.47
2022-10-04T12:29:32.526Z,24.32
2022-10-04T12:30:32.537Z,24.03
2022-10-04T12:31:32.622Z,23.83
2022-10-04T12:32:32.538Z,23.48
2022-10-04T12:33:32.539Z,23.55
2022-10-04T12:34:32.542Z,23.40
2022-10-04T12:35:32.545Z,23.35
2022-10-04T12:36:32.550Z,23.53
2022-10-04T12:37:32.560Z,23.63
2022-10-04T12:38:32.550Z,23.69
2022-10-04T12:39:32.554Z,23.60
2022-10-04T12:40:32.553Z,23.42
2022-10-04T12:41:32.582Z,23.46
2022-10-04T12:42:32.885Z,23.55
2022-10-04T12:43:32.563Z,23.69
2022-10-04T12:44:32.573Z,23.72
2022-10-04T12:45:32.623Z,23.75
2022-10-04T12:46:32.569Z,23.85
2022-10-04T12:47:32.569Z,23.90
2022-10-04T12:48:32.575Z,23.97
2022-10-04T12:49:32.573Z,23.91
2022-10-04T12:50:32.584Z,23.90
2022-10-04T12:51:32.578Z,23.95
2022-10-04T12:52:32.581Z,24.00
2022-10-04T12:53:32.583Z,23.97
2022-10-04T12:54:32.589Z,24.08
2022-10-04T12:55:32.583Z,24.22
2022-10-04T12:56:32.598Z,24.35
2022-10-04T12:57:32.612Z,24.24
2022-10-04T12:58:32.596Z,24.39